Republic, Pennsylvania
Current Conditions -  °F | °C
As of 10:53 PM on Wednesday 28 Jan 2015 (Local Time) from KMGW Reporting Station
Clear Clear  
Wind Chill: 20°   Ceiling: Unl
Heat Index: 20°   Visibility: 10mi
Dew Point:   Wind: 3mph
Humidity: 62%   Direction: 120°ESE
Pressure: 30.28"   Gusts: NA
Location:  39.96°N, 79.88°W
Report Text: KMGW 290353Z 12003KT 10SM CLR M07/M13 A3028 RMK AO2 SLP272 T10671128
Loading
Personal Weather Stations






























Interactive Weather Map New forecast layout! Learn more

10-Day Weather Forecast

Advertisements
Track Severe Weather on mobile